Time;durP1;ratioP1;P1;durP2;ratioP2;P2;SDS_P1;SDS_P2;PMS_P1;PMS_P2;Temp;Humidity;BMP_temperature;BMP_pressure;BME280_temperature;BME280_humidity;BME280_pressure;Samples;Min_cycle;Max_cycle;Signal;HPM_P1;HPM_P2
2022/01/10 00:00:31;;;;;;;15.95;9.95;;;-2.60;99.90;;;;;;5028379;28;20517;-75
2022/01/10 00:03:02;;;;;;;20.77;10.20;;;-2.60;99.90;;;;;;4979381;28;20054;-74
2022/01/10 00:05:29;;;;;;;19.05;9.52;;;-2.50;99.90;;;;;;5032777;28;20049;-74
2022/01/10 00:07:56;;;;;;;20.08;9.98;;;-2.50;99.90;;;;;;5030570;28;20049;-74
2022/01/10 00:10:24;;;;;;;16.02;8.93;;;-2.50;99.90;;;;;;5031368;28;20053;-74
2022/01/10 00:12:51;;;;;;;19.25;9.48;;;-2.50;99.90;;;;;;5014935;28;20042;-74
2022/01/10 00:15:19;;;;;;;21.33;9.48;;;-2.60;99.90;;;;;;5011250;28;20537;-75
2022/01/10 00:17:47;;;;;;;19.55;10.30;;;-2.60;99.90;;;;;;5025313;28;20061;-75
2022/01/10 00:20:19;;;;;;;17.35;9.77;;;-2.60;99.90;;;;;;5026813;28;20050;-73
2022/01/10 00:22:49;;;;;;;19.88;9.90;;;-2.60;99.90;;;;;;5021371;28;20061;-73
2022/01/10 00:25:19;;;;;;;17.67;9.55;;;-2.60;99.90;;;;;;5015696;28;20077;-73
2022/01/10 00:27:51;;;;;;;18.77;10.73;;;-2.60;99.90;;;;;;5018774;28;20489;-74
2022/01/10 00:30:19;;;;;;;19.07;9.47;;;-2.60;99.90;;;;;;5025489;28;20056;-74
2022/01/10 00:32:46;;;;;;;15.10;9.50;;;-2.60;99.90;;;;;;5027949;28;20076;-74
2022/01/10 00:35:16;;;;;;;19.92;9.52;;;-2.50;99.90;;;;;;5032038;28;20136;-73
2022/01/10 00:37:45;;;;;;;18.85;9.77;;;-2.60;99.90;;;;;;5027829;28;20140;-74
2022/01/10 00:40:17;;;;;;;20.02;9.85;;;-2.50;99.90;;;;;;5028901;28;20540;-73
2022/01/10 00:42:52;;;;;;;21.08;9.48;;;-2.50;99.90;;;;;;5021367;28;20050;-74
2022/01/10 00:45:23;;;;;;;16.95;9.75;;;-2.50;99.90;;;;;;5027776;28;20049;-74
2022/01/10 00:47:54;;;;;;;15.65;9.20;;;-2.50;99.90;;;;;;5004527;28;20140;-75
2022/01/10 00:50:24;;;;;;;25.70;10.90;;;-2.50;99.90;;;;;;5011369;28;20077;-73
2022/01/10 00:52:52;;;;;;;20.63;10.48;;;-2.50;99.90;;;;;;5027535;28;20144;-75
2022/01/10 00:55:20;;;;;;;19.20;10.43;;;-2.60;99.90;;;;;;4995847;28;20534;-74
2022/01/10 00:57:47;;;;;;;19.67;9.48;;;-2.60;99.90;;;;;;5025652;28;20502;-73
2022/01/10 01:00:17;;;;;;;20.23;9.55;;;-2.50;99.90;;;;;;5018441;28;20049;-74
2022/01/10 01:02:45;;;;;;;21.50;9.57;;;-2.50;99.90;;;;;;5028741;28;20498;-74
2022/01/10 01:05:16;;;;;;;19.80;9.63;;;-2.50;99.90;;;;;;4984135;28;20064;-73
2022/01/10 01:07:45;;;;;;;21.83;10.50;;;-2.50;99.90;;;;;;5014793;28;20158;-73
2022/01/10 01:13:02;;;;;;;20.63;10.55;;;-2.50;99.90;;;;;;5012694;28;20602;-73
2022/01/10 01:15:32;;;;;;;18.10;9.90;;;-2.50;99.90;;;;;;5024418;28;20053;-74
2022/01/10 01:18:15;;;;;;;30.08;10.13;;;-2.50;99.90;;;;;;5020181;28;20151;-75
2022/01/10 01:20:44;;;;;;;32.05;10.25;;;-2.50;99.90;;;;;;5015668;28;20108;-74
2022/01/10 01:26:02;;;;;;;20.83;9.70;;;-2.50;99.90;;;;;;5015677;28;20049;-75
2022/01/10 01:28:32;;;;;;;25.13;10.15;;;-2.50;99.90;;;;;;5020504;28;20085;-74
2022/01/10 01:30:59;;;;;;;21.13;9.75;;;-2.50;99.90;;;;;;5028953;28;20461;-74
2022/01/10 01:33:27;;;;;;;13.52;8.55;;;-2.50;99.90;;;;;;5021568;28;20046;-74
2022/01/10 01:35:54;;;;;;;17.30;9.88;;;-2.50;99.90;;;;;;5026629;28;20103;-74
2022/01/10 01:38:25;;;;;;;19.90;9.90;;;-2.50;99.90;;;;;;5019608;28;20166;-73
2022/01/10 01:40:58;;;;;;;18.15;9.18;;;-2.50;99.90;;;;;;5009704;28;20076;-73
2022/01/10 01:43:26;;;;;;;23.60;9.80;;;-2.50;99.90;;;;;;5030779;28;20053;-74
2022/01/10 01:45:53;;;;;;;20.92;10.27;;;-2.40;99.90;;;;;;5011884;28;20045;-74
2022/01/10 01:48:21;;;;;;;24.77;10.40;;;-2.50;99.90;;;;;;4986057;28;20050;-74
2022/01/10 01:50:48;;;;;;;22.13;10.70;;;-2.40;99.90;;;;;;5021555;28;20045;-74
2022/01/10 01:53:16;;;;;;;23.77;10.32;;;-2.40;99.90;;;;;;5045867;28;20057;-73
2022/01/10 01:55:46;;;;;;;22.33;10.85;;;-2.40;99.90;;;;;;5002549;28;20529;-73
2022/01/10 01:58:13;;;;;;;17.95;10.27;;;-2.40;99.90;;;;;;5007506;28;20049;-75
2022/01/10 02:00:41;;;;;;;24.55;10.50;;;-2.40;99.90;;;;;;4995286;28;20413;-74
2022/01/10 02:03:09;;;;;;;22.30;10.65;;;-2.40;99.90;;;;;;4996169;28;20041;-75
2022/01/10 02:05:37;;;;;;;18.02;10.10;;;-2.40;99.90;;;;;;5022788;28;20037;-75
2022/01/10 02:08:05;;;;;;;23.73;11.05;;;-2.40;99.90;;;;;;5004620;28;20045;-75
2022/01/10 02:10:32;;;;;;;19.48;9.35;;;-2.40;99.90;;;;;;4996554;28;20045;-75
2022/01/10 02:13:02;;;;;;;30.00;10.38;;;-2.40;99.90;;;;;;5029394;28;20509;-75
2022/01/10 02:15:34;;;;;;;19.80;10.57;;;-2.40;99.90;;;;;;5013298;28;20057;-75
2022/01/10 02:18:07;;;;;;;24.58;9.98;;;-2.40;99.90;;;;;;5012593;28;20041;-75
2022/01/10 02:20:36;;;;;;;20.95;9.98;;;-2.40;99.90;;;;;;5045440;28;20037;-75
2022/01/10 02:23:04;;;;;;;22.85;10.05;;;-2.40;99.90;;;;;;5003593;28;20088;-75
2022/01/10 02:25:48;;;;;;;21.58;10.07;;;-2.30;99.90;;;;;;5028234;28;20049;-75
2022/01/10 02:28:21;;;;;;;21.35;10.40;;;-2.30;99.90;;;;;;5008739;28;20054;-75
2022/01/10 02:30:52;;;;;;;18.80;9.93;;;-2.40;99.90;;;;;;5018090;28;20053;-76
2022/01/10 02:33:20;;;;;;;20.88;10.43;;;-2.40;99.90;;;;;;5014936;28;20054;-75
2022/01/10 02:35:56;;;;;;;23.95;9.98;;;-2.40;99.90;;;;;;5027701;28;20054;-75
2022/01/10 02:38:24;;;;;;;21.08;9.98;;;-2.30;99.90;;;;;;5009698;28;20049;-74
2022/01/10 02:40:53;;;;;;;18.13;9.48;;;-2.30;99.90;;;;;;5015920;28;20139;-75
2022/01/10 02:43:21;;;;;;;16.65;8.73;;;-2.40;99.90;;;;;;5027901;28;20485;-75
2022/01/10 02:45:49;;;;;;;23.33;11.52;;;-2.40;99.90;;;;;;5033642;28;20364;-75
2022/01/10 02:48:16;;;;;;;18.20;8.98;;;-2.40;99.90;;;;;;5033156;28;20129;-76
2022/01/10 02:50:44;;;;;;;18.50;10.68;;;-2.30;99.90;;;;;;5015184;28;20559;-75
2022/01/10 02:53:13;;;;;;;21.60;10.40;;;-2.30;99.90;;;;;;5001034;28;20048;-75
2022/01/10 02:55:41;;;;;;;18.35;9.75;;;-2.30;99.90;;;;;;5033203;28;20054;-75
2022/01/10 02:58:12;;;;;;;22.67;10.23;;;-2.30;99.90;;;;;;5000327;28;20057;-76
2022/01/10 03:00:40;;;;;;;22.10;10.43;;;-2.30;99.90;;;;;;5007019;28;20060;-75
2022/01/10 03:03:07;;;;;;;19.38;9.27;;;-2.30;99.90;;;;;;5011960;28;20107;-75
2022/01/10 03:05:36;;;;;;;19.13;9.35;;;-2.30;99.90;;;;;;5032024;28;20046;-74
2022/01/10 03:08:04;;;;;;;25.35;10.40;;;-2.30;99.90;;;;;;5046326;28;20132;-75
2022/01/10 03:10:34;;;;;;;17.60;8.70;;;-2.30;99.90;;;;;;5019988;28;20053;-75
2022/01/10 03:13:03;;;;;;;15.40;9.40;;;-2.30;99.90;;;;;;4992066;28;20466;-74
2022/01/10 03:15:31;;;;;;;23.05;9.50;;;-2.30;99.90;;;;;;5012689;28;20049;-75
2022/01/10 03:17:59;;;;;;;19.60;9.32;;;-2.30;99.90;;;;;;5012790;28;20056;-75
2022/01/10 03:20:26;;;;;;;17.67;8.70;;;-2.30;99.90;;;;;;4998344;28;20050;-75
2022/01/10 03:22:54;;;;;;;21.38;9.38;;;-2.30;99.90;;;;;;5013158;28;20050;-75
2022/01/10 03:25:23;;;;;;;22.20;8.68;;;-2.30;99.90;;;;;;5012654;28;20100;-75
2022/01/10 03:27:56;;;;;;;16.50;8.35;;;-2.20;99.90;;;;;;5036748;28;20529;-75
2022/01/10 03:30:24;;;;;;;15.25;8.55;;;-2.30;99.90;;;;;;5041344;28;20064;-76
2022/01/10 03:32:51;;;;;;;17.73;8.65;;;-2.30;99.90;;;;;;5033030;28;20053;-76
2022/01/10 03:35:26;;;;;;;17.83;8.40;;;-2.30;99.90;;;;;;5015992;28;20053;-76
2022/01/10 03:37:54;;;;;;;18.77;8.93;;;-2.30;99.90;;;;;;5015411;28;20455;-75
2022/01/10 03:40:24;;;;;;;22.02;10.32;;;-2.30;99.90;;;;;;5001324;28;20050;-75
2022/01/10 03:42:53;;;;;;;16.38;7.28;;;-2.20;99.90;;;;;;5012889;28;20153;-75
2022/01/10 03:45:22;;;;;;;11.63;6.75;;;-2.30;99.90;;;;;;5013124;28;20048;-75
2022/01/10 03:47:49;;;;;;;15.40;6.68;;;-2.30;99.90;;;;;;5020424;28;20410;-75
2022/01/10 03:50:17;;;;;;;15.57;6.07;;;-2.30;99.90;;;;;;5032194;28;20062;-75
2022/01/10 03:52:44;;;;;;;14.75;7.05;;;-2.30;99.90;;;;;;5016562;28;20132;-75
2022/01/10 03:55:12;;;;;;;12.45;6.85;;;-2.30;99.90;;;;;;5028474;28;20037;-75
2022/01/10 03:57:40;;;;;;;14.70;7.25;;;-2.30;99.90;;;;;;5009450;28;20101;-76
2022/01/10 04:00:10;;;;;;;15.25;6.60;;;-2.30;99.90;;;;;;5015133;28;20085;-75
2022/01/10 04:02:52;;;;;;;12.70;6.05;;;-2.20;99.90;;;;;;5013797;28;20137;-77
2022/01/10 04:05:24;;;;;;;14.25;5.95;;;-2.20;99.90;;;;;;5047422;28;20057;-76
2022/01/10 04:07:52;;;;;;;14.32;6.65;;;-2.20;99.90;;;;;;5004222;28;20049;-77
2022/01/10 04:10:21;;;;;;;10.20;5.07;;;-2.20;99.90;;;;;;4983233;28;20054;-81
2022/01/10 04:12:48;;;;;;;12.25;5.70;;;-2.20;99.90;;;;;;5022626;28;20414;-82
2022/01/10 04:15:16;;;;;;;10.60;5.00;;;-2.20;99.90;;;;;;5000664;28;21509;-76
2022/01/10 04:17:45;;;;;;;9.20;4.10;;;-2.20;99.90;;;;;;5013314;28;20470;-76
2022/01/10 04:20:14;;;;;;;8.20;4.72;;;-2.30;99.90;;;;;;5013864;28;20084;-76
2022/01/10 04:22:41;;;;;;;11.50;5.18;;;-2.20;99.90;;;;;;5011951;28;20038;-75
2022/01/10 04:25:11;;;;;;;9.95;4.85;;;-2.20;99.90;;;;;;5030348;28;20045;-75
2022/01/10 04:27:39;;;;;;;9.00;3.97;;;-2.20;99.90;;;;;;5013675;28;20057;-75
2022/01/10 04:30:10;;;;;;;7.53;4.32;;;-2.20;99.90;;;;;;5031218;28;20052;-76
2022/01/10 04:32:38;;;;;;;11.43;4.68;;;-2.30;99.90;;;;;;5012828;28;20061;-78
2022/01/10 04:35:09;;;;;;;10.02;4.07;;;-2.30;99.90;;;;;;5028701;28;20157;-78
2022/01/10 04:37:37;;;;;;;7.07;3.22;;;-2.30;99.90;;;;;;4997066;28;20050;-77
2022/01/10 04:40:07;;;;;;;6.63;3.53;;;-2.30;99.90;;;;;;5014245;28;20033;-79
2022/01/10 04:42:39;;;;;;;7.63;3.75;;;-2.40;99.90;;;;;;5009172;28;20157;-80
2022/01/10 04:45:08;;;;;;;4.80;3.22;;;-2.40;99.90;;;;;;5012022;28;20789;-77
2022/01/10 04:47:35;;;;;;;6.07;3.25;;;-2.40;99.90;;;;;;5012928;28;20045;-77
2022/01/10 04:50:24;;;;;;;6.95;2.95;;;-2.40;99.90;;;;;;5012965;28;20144;-80
2022/01/10 04:52:54;;;;;;;7.35;3.72;;;-2.50;99.90;;;;;;5013325;28;20087;-77
2022/01/10 04:55:22;;;;;;;9.13;3.40;;;-2.60;99.90;;;;;;5013895;28;20100;-79
2022/01/10 04:57:53;;;;;;;5.05;3.67;;;-2.60;99.90;;;;;;5011365;28;20066;-84
2022/01/10 05:00:25;;;;;;;7.95;3.45;;;-2.60;99.90;;;;;;5014155;28;20049;-86
2022/01/10 05:02:53;;;;;;;5.53;2.58;;;-2.60;99.90;;;;;;4996161;28;20061;-76
2022/01/10 05:05:21;;;;;;;4.38;2.53;;;-2.60;99.90;;;;;;5011447;28;20045;-79
2022/01/10 05:07:49;;;;;;;5.97;2.97;;;-2.60;99.90;;;;;;5045160;28;20053;-80
2022/01/10 05:10:19;;;;;;;4.88;3.58;;;-2.60;99.90;;;;;;5011764;28;20540;-77
2022/01/10 05:12:47;;;;;;;5.32;3.10;;;-2.60;99.90;;;;;;4997126;28;20085;-82
2022/01/10 05:15:15;;;;;;;3.25;2.47;;;-2.60;99.90;;;;;;5031233;28;20046;-80
2022/01/10 05:17:43;;;;;;;4.47;3.05;;;-2.60;99.90;;;;;;5013289;28;20565;-82
2022/01/10 05:20:12;;;;;;;4.45;2.72;;;-2.70;99.90;;;;;;5011773;28;20465;-81
2022/01/10 05:22:40;;;;;;;4.53;3.03;;;-2.70;99.90;;;;;;5013281;28;20494;-80
2022/01/10 05:25:09;;;;;;;7.60;3.42;;;-2.80;99.90;;;;;;5014252;28;20397;-81
2022/01/10 05:27:39;;;;;;;3.90;2.67;;;-2.80;99.90;;;;;;5045278;28;20099;-81
2022/01/10 05:30:10;;;;;;;6.80;3.08;;;-2.80;99.90;;;;;;5044490;28;20081;-80
2022/01/10 05:32:38;;;;;;;2.65;2.22;;;-2.80;99.90;;;;;;5027855;28;20111;-79
2022/01/10 05:35:14;;;;;;;3.33;2.22;;;-2.80;99.90;;;;;;5011311;28;20052;-80
2022/01/10 05:37:42;;;;;;;3.63;2.45;;;-2.80;99.90;;;;;;5027755;28;20111;-81
2022/01/10 05:40:11;;;;;;;3.25;1.98;;;-2.90;99.90;;;;;;5028951;28;20548;-81
2022/01/10 05:42:40;;;;;;;3.33;1.63;;;-2.90;99.90;;;;;;5029073;28;20064;-81
2022/01/10 05:45:09;;;;;;;3.45;2.10;;;-2.90;99.90;;;;;;5012264;28;20041;-80
2022/01/10 05:47:42;;;;;;;2.97;1.88;;;-2.90;99.90;;;;;;5030163;28;20080;-80
2022/01/10 05:50:13;;;;;;;4.03;2.72;;;-2.90;99.90;;;;;;5019236;28;20056;-83
2022/01/10 05:52:45;;;;;;;2.15;1.85;;;-3.00;99.90;;;;;;5022151;28;20069;-76
2022/01/10 05:55:13;;;;;;;2.55;2.05;;;-3.00;99.90;;;;;;5030150;28;20537;-77
2022/01/10 05:57:46;;;;;;;3.10;2.10;;;-3.10;99.90;;;;;;4996994;28;20449;-78
2022/01/10 06:00:14;;;;;;;4.50;1.85;;;-3.10;99.90;;;;;;5031332;28;20422;-78
2022/01/10 06:02:42;;;;;;;3.00;1.95;;;-3.10;99.90;;;;;;5031662;28;20052;-78
2022/01/10 06:05:16;;;;;;;3.97;1.77;;;-3.20;99.90;;;;;;5021390;28;20059;-76
2022/01/10 06:07:48;;;;;;;2.75;1.65;;;-3.20;99.90;;;;;;5004561;28;20117;-77
2022/01/10 06:10:16;;;;;;;2.90;1.75;;;-3.30;99.90;;;;;;5045839;28;20053;-79
2022/01/10 06:12:47;;;;;;;2.33;1.98;;;-3.30;99.90;;;;;;5030800;28;20605;-80
2022/01/10 06:15:18;;;;;;;1.80;1.55;;;-3.30;99.90;;;;;;5050291;28;20421;-84
2022/01/10 06:17:48;;;;;;;1.92;1.42;;;-3.40;99.90;;;;;;5033138;28;20458;-82
2022/01/10 06:20:16;;;;;;;2.88;1.95;;;-3.40;99.90;;;;;;5065687;28;20560;-82
2022/01/10 06:22:46;;;;;;;1.90;1.50;;;-3.40;99.90;;;;;;5049955;28;20530;-77
2022/01/10 06:25:19;;;;;;;1.65;1.30;;;-3.40;99.90;;;;;;5012660;28;20065;-78
2022/01/10 06:27:48;;;;;;;1.50;1.40;;;-3.40;99.90;;;;;;5012747;28;20155;-84
2022/01/10 06:30:15;;;;;;;1.33;1.23;;;-3.40;99.90;;;;;;5012769;28;20056;-80
2022/01/10 06:32:46;;;;;;;14.80;3.60;;;-3.40;99.90;;;;;;5028872;28;20453;-81
2022/01/10 06:35:17;;;;;;;2.67;1.27;;;-3.50;99.90;;;;;;5012626;28;20053;-81
2022/01/10 06:37:45;;;;;;;4.00;2.72;;;-3.50;99.90;;;;;;5030551;28;20057;-81
2022/01/10 06:40:15;;;;;;;1.83;1.40;;;-3.50;99.90;;;;;;5012841;28;20115;-78
2022/01/10 06:42:49;;;;;;;2.13;1.40;;;-3.50;99.90;;;;;;4985332;28;20060;-76
2022/01/10 06:45:16;;;;;;;1.20;0.90;;;-3.60;99.90;;;;;;5045765;28;20049;-78
2022/01/10 06:47:44;;;;;;;4.13;1.27;;;-3.60;99.90;;;;;;5012885;28;20055;-76
2022/01/10 06:50:12;;;;;;;3.28;1.10;;;-3.60;99.90;;;;;;5045586;28;20110;-76
2022/01/10 06:52:44;;;;;;;1.83;1.25;;;-3.70;99.90;;;;;;5045921;28;20049;-79
2022/01/10 06:55:12;;;;;;;1.52;1.00;;;-3.70;99.90;;;;;;5029505;28;20048;-78
2022/01/10 06:57:41;;;;;;;4.32;1.10;;;-3.70;99.90;;;;;;4994490;28;20136;-78
2022/01/10 07:00:12;;;;;;;1.38;1.17;;;-3.70;99.90;;;;;;5019872;28;20460;-79
2022/01/10 07:02:47;;;;;;;2.30;1.33;;;-3.80;99.90;;;;;;4976972;28;20053;-78
2022/01/10 07:05:15;;;;;;;2.83;1.40;;;-3.80;99.90;;;;;;5025425;28;20053;-82
2022/01/10 07:07:45;;;;;;;3.45;1.50;;;-3.80;99.90;;;;;;4996000;28;20075;-82
2022/01/10 07:10:32;;;;;;;3.35;2.15;;;-3.80;99.90;;;;;;5012054;28;20053;-81
2022/01/10 07:13:00;;;;;;;3.47;2.30;;;-3.80;99.90;;;;;;4982571;28;20510;-82
2022/01/10 07:15:30;;;;;;;2.42;2.05;;;-3.90;99.90;;;;;;5025281;28;20065;-81
2022/01/10 07:18:02;;;;;;;2.08;1.70;;;-3.80;99.90;;;;;;5028342;28;20068;-79
2022/01/10 07:20:33;;;;;;;1.90;1.33;;;-3.90;99.90;;;;;;5019055;28;20057;-78
2022/01/10 07:23:03;;;;;;;4.88;2.40;;;-3.90;99.90;;;;;;5009491;28;20092;-79
2022/01/10 07:25:32;;;;;;;2.70;2.00;;;-3.90;99.90;;;;;;5033885;28;20395;-81
2022/01/10 07:27:59;;;;;;;2.28;1.70;;;-4.00;99.90;;;;;;5036632;28;20124;-82
2022/01/10 07:30:28;;;;;;;1.80;1.45;;;-4.00;99.90;;;;;;5028454;28;20103;-82
2022/01/10 07:32:56;;;;;;;2.50;2.25;;;-4.10;99.90;;;;;;4995805;28;20058;-82
2022/01/10 07:35:23;;;;;;;2.42;2.20;;;-4.10;99.90;;;;;;5013698;28;20072;-80
2022/01/10 07:37:54;;;;;;;1.70;1.60;;;-4.10;99.90;;;;;;5032041;28;20080;-80
2022/01/10 07:40:21;;;;;;;2.92;2.10;;;-4.20;99.90;;;;;;5032798;28;20873;-82
2022/01/10 07:42:48;;;;;;;5.95;2.40;;;-4.20;99.90;;;;;;5015165;28;20139;-81
2022/01/10 07:45:28;;;;;;;2.45;1.92;;;-4.10;99.90;;;;;;5015413;28;20054;-81
2022/01/10 07:47:57;;;;;;;1.95;1.67;;;-4.10;99.90;;;;;;5033027;28;20080;-80
2022/01/10 07:50:25;;;;;;;3.53;2.15;;;-4.10;99.90;;;;;;5032600;28;20080;-80
2022/01/10 07:52:53;;;;;;;2.75;1.90;;;-4.10;99.90;;;;;;4998983;28;20107;-77
2022/01/10 07:55:20;;;;;;;1.98;1.70;;;-4.10;99.90;;;;;;5032814;28;20068;-77
2022/01/10 07:57:48;;;;;;;3.72;2.28;;;-4.10;99.90;;;;;;4998700;28;20053;-78
2022/01/10 08:00:16;;;;;;;1.50;1.40;;;-4.10;99.90;;;;;;5003890;28;20045;-78
2022/01/10 08:02:45;;;;;;;3.22;1.77;;;-4.20;99.90;;;;;;5032664;28;20041;-77
2022/01/10 08:05:13;;;;;;;2.25;1.80;;;-4.10;99.90;;;;;;5032641;28;20041;-76
2022/01/10 08:07:41;;;;;;;1.67;1.50;;;-4.10;99.90;;;;;;5032640;28;20080;-78
2022/01/10 08:10:09;;;;;;;2.17;1.70;;;-4.10;99.90;;;;;;5031783;28;20442;-77
2022/01/10 08:12:37;;;;;;;3.28;2.03;;;-4.10;99.90;;;;;;5013926;28;20057;-77
2022/01/10 08:15:06;;;;;;;3.88;2.13;;;-4.10;99.90;;;;;;5011458;28;20423;-76
2022/01/10 08:17:35;;;;;;;3.28;1.77;;;-4.10;99.90;;;;;;5026810;28;20136;-78
2022/01/10 08:20:05;;;;;;;2.05;1.77;;;-4.10;99.90;;;;;;5032354;28;20046;-78
2022/01/10 08:22:33;;;;;;;2.22;1.60;;;-4.20;99.90;;;;;;5014294;28;20461;-77
2022/01/10 08:25:00;;;;;;;2.10;1.58;;;-4.20;99.90;;;;;;5030293;28;20513;-78
2022/01/10 08:27:28;;;;;;;1.92;1.40;;;-4.20;99.90;;;;;;5031074;28;20506;-78
2022/01/10 08:29:55;;;;;;;1.52;1.42;;;-4.20;99.90;;;;;;5032101;28;20103;-78
2022/01/10 08:32:23;;;;;;;3.75;2.00;;;-4.20;99.90;;;;;;4997886;28;20057;-78
2022/01/10 08:34:51;;;;;;;2.25;2.00;;;-4.30;99.90;;;;;;5022230;28;20053;-79
2022/01/10 08:37:21;;;;;;;1.98;1.80;;;-4.30;99.90;;;;;;5027366;28;20061;-77
2022/01/10 08:39:49;;;;;;;2.78;1.65;;;-4.30;99.90;;;;;;5029009;28;20104;-78
2022/01/10 08:42:17;;;;;;;8.55;3.38;;;-4.40;99.90;;;;;;5030710;28;20187;-81
2022/01/10 08:44:48;;;;;;;2.80;1.80;;;-4.40;99.90;;;;;;5031442;28;20041;-78
2022/01/10 08:47:16;;;;;;;2.35;2.00;;;-4.40;99.90;;;;;;5031917;28;20104;-77
2022/01/10 08:49:44;;;;;;;3.67;2.35;;;-4.40;99.90;;;;;;5031949;28;20053;-79
2022/01/10 08:52:11;;;;;;;2.25;1.60;;;-4.40;99.90;;;;;;5013762;28;20053;-78
2022/01/10 08:54:40;;;;;;;2.47;2.15;;;-4.40;99.90;;;;;;5046900;28;20510;-77
2022/01/10 08:57:08;;;;;;;3.58;2.47;;;-4.40;99.90;;;;;;5030140;28;20057;-76
2022/01/10 08:59:35;;;;;;;4.00;2.60;;;-4.40;99.90;;;;;;5026856;28;20487;-77
2022/01/10 09:02:03;;;;;;;5.35;2.50;;;-4.40;99.90;;;;;;5016072;28;20580;-78
2022/01/10 09:04:31;;;;;;;3.35;2.30;;;-4.30;99.90;;;;;;5013043;28;20069;-78
2022/01/10 09:07:00;;;;;;;2.67;2.10;;;-4.30;99.90;;;;;;5031710;28;20053;-77
2022/01/10 09:09:28;;;;;;;5.43;2.35;;;-4.40;99.90;;;;;;5032029;28;20058;-78
2022/01/10 09:11:57;;;;;;;2.10;1.73;;;-4.40;99.90;;;;;;5010101;28;20403;-77
2022/01/10 09:14:24;;;;;;;2.53;2.10;;;-4.50;99.90;;;;;;5011760;28;20490;-77
2022/01/10 09:16:52;;;;;;;4.88;2.72;;;-4.50;99.90;;;;;;5013714;28;20056;-78
2022/01/10 09:19:20;;;;;;;2.97;2.10;;;-4.40;99.90;;;;;;5030423;28;20042;-77
2022/01/10 09:21:48;;;;;;;4.72;2.20;;;-4.40;99.90;;;;;;5030936;28;20053;-77
2022/01/10 09:24:15;;;;;;;6.25;3.20;;;-4.40;99.90;;;;;;5029652;28;20056;-78
2022/01/10 09:26:43;;;;;;;2.97;2.50;;;-4.40;99.90;;;;;;5028182;28;20414;-79
2022/01/10 09:29:12;;;;;;;2.15;1.95;;;-4.40;99.90;;;;;;5010918;28;20143;-79
2022/01/10 09:31:40;;;;;;;3.88;2.97;;;-4.40;99.90;;;;;;5028558;28;20061;-77
2022/01/10 09:34:07;;;;;;;3.80;2.47;;;-4.50;99.90;;;;;;5029154;28;20049;-77
2022/01/10 09:36:34;;;;;;;3.47;2.78;;;-4.50;99.90;;;;;;5010777;28;20473;-77
2022/01/10 09:39:04;;;;;;;5.57;2.47;;;-4.40;99.90;;;;;;5024854;28;20080;-77
2022/01/10 09:41:32;;;;;;;4.45;2.50;;;-4.50;99.90;;;;;;5013074;28;20041;-78
2022/01/10 09:44:02;;;;;;;4.32;2.72;;;-4.60;99.90;;;;;;5031137;28;20053;-77
2022/01/10 09:46:32;;;;;;;2.53;2.33;;;-4.60;99.90;;;;;;5030623;28;20085;-78
2022/01/10 09:49:02;;;;;;;3.90;2.83;;;-4.60;99.90;;;;;;5031219;28;20056;-78
2022/01/10 09:51:30;;;;;;;5.53;2.70;;;-4.60;99.90;;;;;;5030879;28;20091;-78
2022/01/10 09:54:00;;;;;;;5.10;2.50;;;-4.70;99.90;;;;;;5031169;28;20057;-77
2022/01/10 09:56:29;;;;;;;3.40;2.35;;;-4.70;99.90;;;;;;5030258;28;20514;-79
2022/01/10 09:58:57;;;;;;;6.47;2.35;;;-4.70;99.90;;;;;;5031046;28;20048;-78
2022/01/10 10:01:32;;;;;;;2.55;1.95;;;-4.70;99.90;;;;;;5030249;28;20085;-77
2022/01/10 10:04:01;;;;;;;3.15;2.22;;;-4.70;99.90;;;;;;5030623;28;20111;-77
2022/01/10 10:06:30;;;;;;;2.55;2.35;;;-4.70;99.90;;;;;;5027410;28;20045;-77
2022/01/10 10:08:59;;;;;;;4.20;2.75;;;-4.70;99.90;;;;;;5030622;28;20449;-81
2022/01/10 10:11:39;;;;;;;4.00;2.83;;;-4.70;99.90;;;;;;5009577;28;20100;-77
2022/01/10 10:14:09;;;;;;;3.38;2.75;;;-4.70;99.90;;;;;;5027037;28;20056;-77
2022/01/10 10:16:48;;;;;;;3.85;2.78;;;-4.70;99.90;;;;;;5028450;28;20426;-78
2022/01/10 10:19:20;;;;;;;4.00;3.47;;;-4.70;99.90;;;;;;5029838;28;20521;-77
2022/01/10 10:21:48;;;;;;;5.18;3.30;;;-4.70;99.90;;;;;;5030240;28;20215;-81
2022/01/10 10:24:16;;;;;;;5.55;3.95;;;-4.60;99.90;;;;;;5030534;28;20049;-78
2022/01/10 10:26:44;;;;;;;4.55;3.67;;;-4.60;99.90;;;;;;5030037;28;20076;-78
2022/01/10 10:29:19;;;;;;;4.97;3.38;;;-4.60;99.90;;;;;;4996135;28;20854;-80
2022/01/10 10:32:02;;;;;;;5.10;3.50;;;-4.60;99.90;;;;;;5004567;28;20588;-78
2022/01/10 10:34:32;;;;;;;7.57;4.63;;;-4.60;99.90;;;;;;5027012;28;20050;-78
2022/01/10 10:37:05;;;;;;;5.47;3.95;;;-4.60;99.90;;;;;;5030213;28;20045;-78
2022/01/10 10:39:37;;;;;;;7.35;4.50;;;-4.50;99.90;;;;;;5008913;28;20042;-77
2022/01/10 10:42:08;;;;;;;7.53;3.80;;;-4.50;99.90;;;;;;5027417;28;20054;-78
2022/01/10 10:44:36;;;;;;;7.15;4.32;;;-4.50;99.90;;;;;;5010861;28;20056;-78
2022/01/10 10:47:06;;;;;;;6.18;3.47;;;-4.50;99.90;;;;;;5030342;28;20046;-80
2022/01/10 10:49:38;;;;;;;7.35;4.47;;;-4.50;99.90;;;;;;5029279;28;20080;-78
2022/01/10 10:52:09;;;;;;;5.38;3.92;;;-4.50;99.90;;;;;;5015007;28;20445;-77
2022/01/10 10:54:38;;;;;;;5.97;4.15;;;-4.40;99.90;;;;;;5045925;28;20055;-79
2022/01/10 10:57:11;;;;;;;4.97;4.03;;;-4.40;99.90;;;;;;5015176;28;20128;-79
2022/01/10 10:59:43;;;;;;;4.22;3.20;;;-4.40;99.90;;;;;;5015007;28;20100;-80
2022/01/10 11:02:13;;;;;;;5.90;3.60;;;-4.40;99.90;;;;;;5014350;28;20104;-78
2022/01/10 11:04:45;;;;;;;4.10;3.33;;;-4.40;99.90;;;;;;5016039;28;20110;-79
2022/01/10 11:07:13;;;;;;;10.18;4.15;;;-4.40;99.90;;;;;;5032589;28;20053;-77
2022/01/10 11:09:40;;;;;;;7.18;3.42;;;-4.40;99.90;;;;;;5007106;28;20140;-81
2022/01/10 11:12:13;;;;;;;4.10;3.60;;;-4.50;99.90;;;;;;5032724;28;20136;-81
2022/01/10 11:14:42;;;;;;;7.60;3.92;;;-4.50;99.90;;;;;;5029657;28;20295;-82
2022/01/10 11:17:19;;;;;;;4.97;3.80;;;-4.50;99.90;;;;;;5033879;28;20041;-80
2022/01/10 11:20:09;;;;;;;6.60;3.67;;;-4.50;99.90;;;;;;5034011;28;20041;-81
2022/01/10 11:22:39;;;;;;;3.92;3.53;;;-4.50;99.90;;;;;;4996046;28;20081;-80
2022/01/10 11:25:24;;;;;;;7.93;4.20;;;-4.50;99.90;;;;;;5013924;28;20061;-79
2022/01/10 11:27:54;;;;;;;5.10;3.63;;;-4.50;99.90;;;;;;5026030;28;20057;-83
2022/01/10 11:30:34;;;;;;;4.40;3.10;;;-4.50;99.90;;;;;;5032849;28;20049;-83
2022/01/10 11:33:08;;;;;;;4.80;2.97;;;-4.50;99.90;;;;;;5033215;28;20057;-81
2022/01/10 11:35:39;;;;;;;2.97;2.63;;;-4.40;99.90;;;;;;5033307;28;20049;-83
2022/01/10 11:38:29;;;;;;;4.93;3.00;;;-4.40;99.90;;;;;;5032887;28;20049;-89
2022/01/10 11:41:00;;;;;;;8.13;4.03;;;-4.40;99.90;;;;;;4996624;28;20053;-85
2022/01/10 11:43:44;;;;;;;6.13;3.67;;;-4.40;99.90;;;;;;5014067;28;20096;-86
2022/01/10 11:46:26;;;;;;;4.00;3.22;;;-4.40;99.90;;;;;;5016168;28;20047;-84
2022/01/10 11:48:59;;;;;;;4.78;3.45;;;-4.50;99.90;;;;;;5033167;28;20491;-85
2022/01/10 11:51:32;;;;;;;6.70;3.00;;;-4.50;99.90;;;;;;5032774;28;20060;-78
2022/01/10 11:54:13;;;;;;;4.85;3.50;;;-4.50;99.90;;;;;;5032845;28;20045;-81
2022/01/10 11:56:43;;;;;;;4.45;3.55;;;-4.60;99.90;;;;;;5028656;28;20536;-82
2022/01/10 11:59:24;;;;;;;4.93;3.28;;;-4.80;99.90;;;;;;5033273;28;20115;-82
2022/01/10 12:02:03;;;;;;;6.50;4.03;;;-4.90;99.90;;;;;;5032895;28;20563;-79
2022/01/10 12:04:35;;;;;;;6.50;3.90;;;-5.00;99.90;;;;;;5032800;28;20057;-79
2022/01/10 12:07:04;;;;;;;8.25;3.95;;;-5.00;99.90;;;;;;5032069;28;20080;-79
2022/01/10 12:09:32;;;;;;;6.25;4.47;;;-5.10;99.90;;;;;;5032897;28;20044;-83
2022/01/10 12:12:01;;;;;;;6.78;3.80;;;-5.10;99.90;;;;;;5020933;28;20478;-81
2022/01/10 12:14:29;;;;;;;5.63;3.70;;;-5.20;99.90;;;;;;5012425;28;20041;-78
2022/01/10 12:16:58;;;;;;;5.60;4.40;;;-5.20;99.90;;;;;;4995104;28;20046;-79
2022/01/10 12:19:27;;;;;;;5.82;4.40;;;-5.20;99.90;;;;;;5012466;28;20050;-78
2022/01/10 12:21:56;;;;;;;6.93;4.68;;;-5.20;99.90;;;;;;5013533;28;20140;-78
2022/01/10 12:24:24;;;;;;;5.85;4.47;;;-5.20;99.90;;;;;;5030104;28;20100;-79
2022/01/10 12:26:52;;;;;;;6.65;4.88;;;-5.20;99.90;;;;;;5033153;28;20138;-81
2022/01/10 12:29:22;;;;;;;5.68;4.57;;;-5.20;99.90;;;;;;5015862;28;20559;-77
2022/01/10 12:31:49;;;;;;;8.80;5.80;;;-5.30;99.90;;;;;;5032320;28;20049;-79
2022/01/10 12:34:17;;;;;;;7.32;5.07;;;-5.30;99.90;;;;;;5032321;28;20053;-79
2022/01/10 12:36:46;;;;;;;10.52;5.90;;;-5.30;99.90;;;;;;5031733;28;20055;-80
2022/01/10 12:39:21;;;;;;;7.40;5.15;;;-5.30;99.90;;;;;;5032300;28;20045;-78
2022/01/10 12:41:49;;;;;;;8.32;6.10;;;-5.40;99.90;;;;;;5032246;28;20056;-75
2022/01/10 12:44:16;;;;;;;7.82;5.80;;;-5.40;99.90;;;;;;5034022;28;20064;-78
2022/01/10 12:46:44;;;;;;;14.48;6.15;;;-5.40;99.90;;;;;;5032266;28;20081;-78
2022/01/10 12:49:16;;;;;;;10.57;5.80;;;-5.40;99.90;;;;;;5028902;28;20045;-76
2022/01/10 12:51:46;;;;;;;8.45;6.20;;;-5.40;99.90;;;;;;5031150;28;20057;-77
2022/01/10 12:54:17;;;;;;;10.80;6.95;;;-5.40;99.90;;;;;;5029540;28;20129;-78
2022/01/10 12:56:50;;;;;;;13.48;7.10;;;-5.40;99.90;;;;;;5028590;28;20149;-79
2022/01/10 12:59:21;;;;;;;11.65;6.90;;;-5.40;99.90;;;;;;5010416;28;20518;-77
2022/01/10 13:01:50;;;;;;;12.85;6.40;;;-5.40;99.90;;;;;;5028736;28;20096;-77